Wetterdaten: Woche 13.03.17 - 19.03.17 (KW11)
Datum Zeit Temp. A. Feuchte A. Luftdruck Regen Wind Richtung Taupunkt Windchill Windben
13.03.2017 00:00 2,8 C 71 % 1020,6 hPa 0,0 l/m 0,0 km/h N -2,0 C 2,8 C 0,4 km/h
13.03.2017 01:00 1,3 C 72 % 1021,0 hPa 0,0 l/m 0,0 km/h N -3,1 C 1,3 C 0,0 km/h
13.03.2017 02:00 -0,3 C 76 % 1021,1 hPa 0,0 l/m 0,0 km/h N -4,0 C -0,3 C 0,0 km/h
13.03.2017 03:00 -0,7 C 79 % 1021,3 hPa 0,0 l/m 0,0 km/h N -3,8 C -0,7 C 0,4 km/h
13.03.2017 04:00 -0,3 C 82 % 1021,8 hPa 0,0 l/m 0,0 km/h N -3,0 C -0,3 C 1,6 km/h
13.03.2017 05:00 -0,3 C 82 % 1022,3 hPa 0,0 l/m 0,0 km/h N -3,0 C -0,3 C 0,0 km/h
13.03.2017 06:00 -0,9 C 82 % 1023,0 hPa 0,0 l/m 0,0 km/h N -3,6 C -0,9 C 0,4 km/h
13.03.2017 07:00 1,1 C 82 % 1023,6 hPa 0,0 l/m 3,1 km/h N -1,6 C 1,1 C 12,5 km/h
13.03.2017 08:00 3,1 C 77 % 1024,3 hPa 0,0 l/m 6,4 km/h N -0,6 C 2,8 C 17,7 km/h
13.03.2017 09:00 4,4 C 72 % 1024,8 hPa 0,0 l/m 8,6 km/h N -0,3 C 2,5 C 21,7 km/h
13.03.2017 10:00 5,8 C 67 % 1025,1 hPa 0,0 l/m 8,8 km/h N 0,2 C 3,8 C 20,1 km/h
13.03.2017 11:00 7,0 C 64 % 1025,3 hPa 0,0 l/m 9,4 km/h N 0,6 C 4,7 C 21,3 km/h
13.03.2017 12:00 8,0 C 61 % 1025,1 hPa 0,0 l/m 8,6 km/h N 1,0 C 6,3 C 20,5 km/h
13.03.2017 13:00 8,7 C 59 % 1024,8 hPa 0,0 l/m 9,6 km/h N 1,0 C 6,4 C 22,9 km/h
13.03.2017 14:00 9,4 C 57 % 1024,6 hPa 0,0 l/m 8,1 km/h N 1,2 C 8,2 C 19,7 km/h
13.03.2017 15:00 9,7 C 55 % 1024,2 hPa 0,0 l/m 7,2 km/h N 1,1 C 9,1 C 18,9 km/h
13.03.2017 16:00 9,9 C 55 % 1024,2 hPa 0,0 l/m 5,7 km/h N 1,1 C 9,5 C 16,1 km/h
13.03.2017 17:00 9,3 C 55 % 1025,0 hPa 0,0 l/m 3,1 km/h N 0,8 C 9,3 C 9,7 km/h
13.03.2017 18:00 7,7 C 58 % 1025,4 hPa 0,0 l/m 0,0 km/h N -0,0 C 7,7 C 0,8 km/h
13.03.2017 19:00 5,4 C 66 % 1025,8 hPa 0,0 l/m 0,0 km/h N -0,5 C 5,4 C 2,0 km/h
13.03.2017 20:00 4,2 C 71 % 1026,1 hPa 0,0 l/m 0,1 km/h N -0,6 C 4,2 C 1,2 km/h
13.03.2017 21:00 4,4 C 70 % 1026,2 hPa 0,0 l/m 0,0 km/h N -0,6 C 4,4 C 0,0 km/h
13.03.2017 22:00 3,2 C 72 % 1026,5 hPa 0,0 l/m 0,0 km/h N -1,5 C 3,2 C 0,0 km/h
13.03.2017 23:00 3,6 C 75 % 1026,9 hPa 0,0 l/m 0,6 km/h N -0,6 C 3,6 C 4,8 km/h
14.03.2017 00:00 6,0 C 67 % 1027,2 hPa 0,0 l/m 3,2 km/h N 0,3 C 6,0 C 12,1 km/h
14.03.2017 01:00 5,4 C 68 % 1027,7 hPa 0,0 l/m 1,8 km/h N -0,0 C 5,4 C 7,2 km/h
14.03.2017 02:00 4,8 C 71 % 1027,8 hPa 0,0 l/m 1,2 km/h N -0,1 C 4,8 C 7,6 km/h
14.03.2017 03:00 4,8 C 71 % 1027,7 hPa 0,0 l/m 1,8 km/h N -0,1 C 4,8 C 8,8 km/h
14.03.2017 04:00 4,1 C 73 % 1027,7 hPa 0,0 l/m 1,9 km/h N -0,3 C 4,1 C 7,2 km/h
14.03.2017 05:00 3,9 C 74 % 1027,8 hPa 0,0 l/m 0,6 km/h N -0,3 C 3,9 C 6,0 km/h
14.03.2017 06:00 4,5 C 74 % 1027,9 hPa 0,0 l/m 0,4 km/h N 0,3 C 4,5 C 6,0 km/h
14.03.2017 07:00 6,6 C 67 % 1027,9 hPa 0,0 l/m 3,3 km/h N 0,8 C 6,6 C 12,9 km/h
14.03.2017 08:00 8,2 C 61 % 1028,4 hPa 0,0 l/m 5,4 km/h N 1,0 C 8,0 C 18,5 km/h
14.03.2017 09:00 9,3 C 59 % 1028,9 hPa 0,0 l/m 6,7 km/h N 1,5 C 8,7 C 21,3 km/h
14.03.2017 10:00 10,5 C 53 % 1029,1 hPa 0,0 l/m 13,0 km/h N 1,3 C 6,7 C 27,8 km/h
14.03.2017 11:00 11,1 C 53 % 1028,7 hPa 0,0 l/m 12,3 km/h N 1,8 C 7,7 C 26,1 km/h
14.03.2017 12:00 12,0 C 51 % 1028,1 hPa 0,0 l/m 14,0 km/h N 2,0 C 8,0 C 30,2 km/h
14.03.2017 13:00 12,3 C 50 % 1027,7 hPa 0,0 l/m 12,4 km/h N 2,1 C 8,9 C 28,5 km/h
14.03.2017 14:00 11,4 C 54 % 1027,9 hPa 0,0 l/m 11,9 km/h N 2,2 C 8,1 C 27,8 km/h
14.03.2017 15:00 11,1 C 56 % 1027,8 hPa 0,0 l/m 11,5 km/h N 2,7 C 8,0 C 28,2 km/h
14.03.2017 16:00 11,3 C 57 % 1027,8 hPa 0,0 l/m 10,9 km/h N 2,9 C 8,6 C 23,7 km/h
14.03.2017 17:00 10,8 C 58 % 1027,8 hPa 0,0 l/m 5,4 km/h N 2,8 C 10,5 C 16,9 km/h
14.03.2017 18:00 10,3 C 60 % 1028,0 hPa 0,0 l/m 3,0 km/h N 2,9 C 10,3 C 11,7 km/h
14.03.2017 19:00 10,1 C 61 % 1028,2 hPa 0,0 l/m 4,3 km/h N 2,9 C 10,1 C 14,9 km/h
14.03.2017 20:00 9,3 C 64 % 1028,6 hPa 0,0 l/m 4,2 km/h N 2,7 C 9,3 C 12,9 km/h
14.03.2017 21:00 8,3 C 66 % 1028,7 hPa 0,0 l/m 1,6 km/h N 2,4 C 8,3 C 7,2 km/h
14.03.2017 22:00 6,6 C 70 % 1028,9 hPa 0,0 l/m 0,0 km/h N 1,5 C 6,6 C 0,0 km/h
14.03.2017 23:00 6,3 C 75 % 1028,8 hPa 0,0 l/m 0,6 km/h N 2,3 C 6,3 C 5,2 km/h
15.03.2017 00:00 8,4 C 69 % 1028,5 hPa 0,0 l/m 2,3 km/h N 3,0 C 8,4 C 12,1 km/h
15.03.2017 01:00 9,0 C 67 % 1028,3 hPa 0,0 l/m 3,8 km/h N 3,1 C 9,0 C 14,5 km/h
15.03.2017 02:00 8,6 C 67 % 1027,9 hPa 0,0 l/m 0,3 km/h N 2,9 C 8,6 C 4,4 km/h
15.03.2017 03:00 8,1 C 69 % 1027,6 hPa 0,0 l/m 1,1 km/h N 2,7 C 8,1 C 5,6 km/h
15.03.2017 04:00 8,8 C 66 % 1027,1 hPa 0,0 l/m 1,7 km/h N 2,9 C 8,8 C 10,9 km/h
15.03.2017 05:00 8,5 C 67 % 1027,0 hPa 0,0 l/m 0,9 km/h N 2,8 C 8,5 C 6,8 km/h
15.03.2017 06:00 8,9 C 67 % 1027,0 hPa 0,0 l/m 2,4 km/h N 3,1 C 8,9 C 10,5 km/h
15.03.2017 07:00 9,5 C 66 % 1027,6 hPa 0,0 l/m 6,6 km/h N 3,4 C 9,2 C 18,9 km/h
15.03.2017 08:00 10,1 C 64 % 1027,8 hPa 0,0 l/m 7,2 km/h N 3,6 C 9,0 C 18,1 km/h
15.03.2017 09:00 11,3 C 60 % 1027,9 hPa 0,0 l/m 11,8 km/h N 3,8 C 8,2 C 26,5 km/h
15.03.2017 10:00 11,1 C 63 % 1028,4 hPa 0,0 l/m 10,7 km/h N 4,2 C 8,5 C 28,2 km/h
15.03.2017 11:00 11,2 C 63 % 1027,8 hPa 0,0 l/m 9,2 km/h N 4,3 C 9,3 C 23,7 km/h
15.03.2017 12:00 12,0 C 61 % 1027,3 hPa 0,0 l/m 8,9 km/h N 4,7 C 10,5 C 20,1 km/h
15.03.2017 13:00 12,0 C 62 % 1026,7 hPa 0,0 l/m 9,5 km/h N 5,0 C 10,1 C 22,5 km/h
15.03.2017 14:00 12,5 C 62 % 1026,0 hPa 0,0 l/m 10,1 km/h N 5,4 C 10,3 C 24,9 km/h
15.03.2017 15:00 12,9 C 62 % 1025,6 hPa 0,0 l/m 10,0 km/h N 5,7 C 10,9 C 24,5 km/h
15.03.2017 16:00 12,3 C 64 % 1025,6 hPa 0,0 l/m 7,7 km/h N 5,7 C 11,5 C 20,1 km/h
15.03.2017 17:00 11,7 C 67 % 1025,8 hPa 0,0 l/m 4,2 km/h N 5,7 C 11,7 C 14,5 km/h
15.03.2017 18:00 10,9 C 68 % 1026,2 hPa 0,0 l/m 1,0 km/h N 5,1 C 10,9 C 4,8 km/h
15.03.2017 19:00 10,6 C 69 % 1026,2 hPa 0,0 l/m 5,0 km/h N 5,0 C 10,2 C 14,5 km/h
15.03.2017 20:00 10,8 C 66 % 1026,3 hPa 0,0 l/m 5,0 km/h N 4,7 C 10,4 C 15,3 km/h
15.03.2017 21:00 10,2 C 68 % 1026,7 hPa 0,0 l/m 5,3 km/h N 4,5 C 10,2 C 16,1 km/h
15.03.2017 22:00 9,9 C 69 % 1027,2 hPa 0,0 l/m 3,4 km/h N 4,4 C 9,9 C 12,5 km/h
15.03.2017 23:00 8,6 C 72 % 1027,3 hPa 0,0 l/m 3,7 km/h N 3,9 C 8,6 C 13,7 km/h
16.03.2017 00:00 8,1 C 74 % 1027,1 hPa 0,0 l/m 3,3 km/h N 3,8 C 8,1 C 10,5 km/h
16.03.2017 01:00 7,9 C 74 % 1026,9 hPa 0,0 l/m 3,2 km/h N 3,5 C 7,9 C 10,9 km/h
16.03.2017 02:00 7,5 C 73 % 1026,7 hPa 0,0 l/m 3,0 km/h N 3,0 C 7,5 C 8,9 km/h
16.03.2017 03:00 6,4 C 73 % 1026,5 hPa 0,0 l/m 0,1 km/h N 1,9 C 6,4 C 1,6 km/h
16.03.2017 04:00 4,7 C 77 % 1026,2 hPa 0,0 l/m 0,0 km/h N 1,0 C 4,7 C 0,0 km/h
16.03.2017 05:00 3,3 C 79 % 1025,6 hPa 0,0 l/m 0,0 km/h N 0,0 C 3,3 C 0,0 km/h
16.03.2017 06:00 2,1 C 81 % 1025,7 hPa 0,0 l/m 0,0 km/h N -0,8 C 2,1 C 0,4 km/h
16.03.2017 07:00 4,7 C 83 % 1025,6 hPa 0,0 l/m 1,6 km/h N 2,0 C 4,7 C 6,1 km/h
16.03.2017 08:00 8,7 C 78 % 1025,4 hPa 0,0 l/m 7,1 km/h N 5,1 C 8,1 C 17,3 km/h
16.03.2017 09:00 10,5 C 67 % 1025,1 hPa 0,0 l/m 9,4 km/h N 4,6 C 8,5 C 20,1 km/h
16.03.2017 10:00 11,8 C 63 % 1024,3 hPa 0,0 l/m 10,7 km/h N 5,0 C 9,2 C 24,1 km/h
16.03.2017 11:00 13,0 C 58 % 1023,0 hPa 0,0 l/m 13,5 km/h N 4,9 C 9,4 C 31,0 km/h
16.03.2017 12:00 13,9 C 53 % 1022,5 hPa 0,0 l/m 14,5 km/h N 4,5 C 10,1 C 31,0 km/h
16.03.2017 13:00 14,7 C 50 % 1021,7 hPa 0,0 l/m 14,1 km/h N 4,4 C 11,1 C 30,2 km/h
16.03.2017 14:00 15,4 C 45 % 1020,9 hPa 0,0 l/m 12,9 km/h N 3,6 C 12,4 C 27,8 km/h
16.03.2017 15:00 15,8 C 43 % 1020,2 hPa 0,0 l/m 10,6 km/h N 3,2 C 13,9 C 26,9 km/h
16.03.2017 16:00 15,6 C 44 % 1019,9 hPa 0,0 l/m 10,2 km/h N 3,3 C 13,7 C 25,0 km/h
16.03.2017 17:00 14,8 C 46 % 1020,0 hPa 0,0 l/m 9,2 km/h N 3,3 C 13,3 C 23,7 km/h
16.03.2017 18:00 13,8 C 49 % 1020,0 hPa 0,0 l/m 6,7 km/h N 3,1 C 13,3 C 17,7 km/h
16.03.2017 19:00 12,9 C 52 % 1020,2 hPa 0,0 l/m 5,8 km/h N 3,2 C 12,7 C 15,7 km/h
16.03.2017 20:00 12,0 C 56 % 1020,5 hPa 0,0 l/m 2,9 km/h N 3,5 C 12,0 C 9,7 km/h
16.03.2017 21:00 11,2 C 60 % 1020,6 hPa 0,0 l/m 0,0 km/h N 3,7 C 11,2 C 1,6 km/h
16.03.2017 22:00 10,7 C 61 % 1020,3 hPa 0,0 l/m 0,0 km/h N 3,5 C 10,7 C 1,2 km/h
16.03.2017 23:00 9,7 C 61 % 1020,0 hPa 0,0 l/m 0,0 km/h N 2,6 C 9,7 C 0,4 km/h
17.03.2017 00:00 7,3 C 65 % 1019,9 hPa 0,0 l/m 0,0 km/h N 1,0 C 7,3 C 0,0 km/h
17.03.2017 01:00 5,2 C 72 % 1019,7 hPa 0,0 l/m 0,0 km/h N 0,5 C 5,2 C 0,0 km/h
17.03.2017 02:00 3,7 C 76 % 1019,4 hPa 0,0 l/m 0,1 km/h N -0,1 C 3,7 C 1,2 km/h
17.03.2017 03:00 3,0 C 80 % 1019,2 hPa 0,0 l/m 0,0 km/h N -0,1 C 3,0 C 0,4 km/h
17.03.2017 04:00 2,5 C 81 % 1018,7 hPa 0,0 l/m 0,0 km/h N -0,3 C 2,5 C 0,4 km/h
17.03.2017 05:00 3,0 C 82 % 1018,3 hPa 0,0 l/m 0,0 km/h N 0,2 C 3,0 C 0,0 km/h
17.03.2017 06:00 1,6 C 82 % 1018,3 hPa 0,0 l/m 0,0 km/h N -1,2 C 1,6 C 0,0 km/h
17.03.2017 07:00 1,7 C 83 % 1017,9 hPa 0,0 l/m 0,0 km/h N -0,9 C 1,7 C 0,0 km/h
17.03.2017 08:00 4,9 C 83 % 1017,2 hPa 0,0 l/m 0,0 km/h N 2,3 C 4,9 C 1,6 km/h
17.03.2017 09:00 10,9 C 65 % 1016,5 hPa 0,0 l/m 0,3 km/h N 4,3 C 10,9 C 4,0 km/h
17.03.2017 10:00 14,6 C 49 % 1015,7 hPa 0,0 l/m 0,4 km/h N 4,0 C 14,6 C 6,0 km/h
17.03.2017 11:00 16,7 C 43 % 1014,7 hPa 0,0 l/m 1,8 km/h N 4,1 C 16,7 C 11,3 km/h
17.03.2017 12:00 18,7 C 41 % 1013,8 hPa 0,0 l/m 0,7 km/h N 5,1 C 18,7 C 8,0 km/h
17.03.2017 13:00 18,6 C 41 % 1012,3 hPa 0,0 l/m 0,3 km/h N 4,9 C 18,6 C 5,2 km/h
17.03.2017 14:00 20,1 C 38 % 1011,1 hPa 0,0 l/m 4,4 km/h N 5,3 C 19,6 C 23,8 km/h
17.03.2017 15:00 19,5 C 38 % 1010,2 hPa 0,0 l/m 9,0 km/h N 4,7 C 18,4 C 30,5 km/h
17.03.2017 16:00 18,4 C 43 % 1009,7 hPa 0,0 l/m 7,6 km/h N 5,6 C 17,8 C 22,9 km/h
17.03.2017 17:00 17,3 C 47 % 1009,3 hPa 0,0 l/m 5,1 km/h N 6,0 C 17,0 C 15,3 km/h
17.03.2017 18:00 15,7 C 52 % 1009,0 hPa 0,0 l/m 0,3 km/h N 5,8 C 15,7 C 3,6 km/h
17.03.2017 19:00 14,1 C 67 % 1008,9 hPa 0,5 l/m 1,4 km/h N 7,9 C 14,1 C 10,4 km/h
17.03.2017 20:00 12,1 C 77 % 1010,3 hPa 3,6 l/m 10,5 km/h N 8,1 C 9,6 C 31,0 km/h
17.03.2017 21:00 10,6 C 81 % 1009,9 hPa 0,3 l/m 1,0 km/h N 7,5 C 10,6 C 5,2 km/h
17.03.2017 22:00 10,4 C 82 % 1009,7 hPa 0,3 l/m 0,9 km/h N 7,5 C 10,4 C 7,7 km/h
17.03.2017 23:00 11,2 C 82 % 1009,4 hPa 0,5 l/m 1,7 km/h N 8,2 C 11,2 C 9,6 km/h
18.03.2017 00:00 10,9 C 82 % 1009,4 hPa 0,3 l/m 5,1 km/h N 8,0 C 10,7 C 15,7 km/h
18.03.2017 01:00 10,9 C 81 % 1009,1 hPa 0,3 l/m 5,8 km/h N 7,6 C 10,8 C 18,5 km/h
18.03.2017 02:00 10,7 C 79 % 1009,0 hPa 0,0 l/m 1,1 km/h N 7,2 C 10,7 C 8,0 km/h
18.03.2017 03:00 9,9 C 79 % 1008,1 hPa 0,0 l/m 0,5 km/h N 6,5 C 9,9 C 4,8 km/h
18.03.2017 04:00 8,5 C 79 % 1007,5 hPa 0,0 l/m 0,0 km/h N 5,0 C 8,5 C 0,0 km/h
18.03.2017 05:00 7,9 C 81 % 1007,2 hPa 0,0 l/m 0,0 km/h N 4,8 C 7,9 C 1,2 km/h
18.03.2017 06:00 7,8 C 81 % 1006,8 hPa 0,0 l/m 0,0 km/h N 4,7 C 7,8 C 0,4 km/h
18.03.2017 07:00 8,4 C 82 % 1006,5 hPa 0,5 l/m 3,2 km/h N 5,5 C 8,3 C 13,7 km/h
18.03.2017 08:00 9,8 C 77 % 1006,2 hPa 0,0 l/m 7,5 km/h N 6,0 C 8,9 C 24,5 km/h
18.03.2017 09:00 9,6 C 79 % 1005,9 hPa 2,3 l/m 5,8 km/h N 6,1 C 9,3 C 21,3 km/h
18.03.2017 10:00 9,3 C 81 % 1005,7 hPa 2,9 l/m 10,1 km/h N 6,2 C 6,9 C 31,0 km/h
18.03.2017 11:00 9,5 C 80 % 1004,8 hPa 1,3 l/m 16,0 km/h N 6,2 C 4,2 C 39,8 km/h
18.03.2017 12:00 9,7 C 79 % 1004,0 hPa 0,3 l/m 14,6 km/h N 6,3 C 5,0 C 41,0 km/h
18.03.2017 13:00 9,7 C 78 % 1003,3 hPa 0,3 l/m 17,2 km/h N 6,1 C 3,9 C 45,4 km/h
18.03.2017 14:00 10,0 C 75 % 1003,0 hPa 0,3 l/m 20,4 km/h N 5,8 C 3,2 C 51,5 km/h
18.03.2017 15:00 10,5 C 74 % 1003,3 hPa 0,0 l/m 22,3 km/h N 6,0 C 3,3 C 56,7 km/h
18.03.2017 16:00 10,8 C 71 % 1003,2 hPa 0,0 l/m 22,0 km/h N 5,8 C 3,8 C 52,7 km/h
18.03.2017 17:00 10,9 C 71 % 1003,5 hPa 0,0 l/m 24,8 km/h N 5,8 C 3,1 C 53,5 km/h
18.03.2017 18:00 10,6 C 72 % 1003,5 hPa 0,0 l/m 24,8 km/h N 5,7 C 2,7 C 53,5 km/h
18.03.2017 19:00 11,0 C 70 % 1003,2 hPa 0,0 l/m 25,8 km/h N 5,6 C 2,9 C 55,9 km/h
18.03.2017 20:00 11,2 C 70 % 1003,5 hPa 0,0 l/m 22,0 km/h N 5,9 C 4,3 C 53,5 km/h
18.03.2017 21:00 11,1 C 72 % 1004,1 hPa 0,3 l/m 17,6 km/h N 6,3 C 5,6 C 44,3 km/h
18.03.2017 22:00 10,3 C 79 % 1004,7 hPa 1,3 l/m 14,2 km/h N 6,8 C 5,8 C 38,6 km/h
18.03.2017 23:00 10,0 C 80 % 1005,3 hPa 2,3 l/m 14,5 km/h N 6,7 C 5,4 C 36,6 km/h
19.03.2017 00:00 8,4 C 81 % 1006,4 hPa 1,3 l/m 10,7 km/h N 5,4 C 5,4 C 28,6 km/h
19.03.2017 01:00 7,6 C 82 % 1007,4 hPa 3,4 l/m 8,8 km/h N 4,7 C 5,8 C 21,3 km/h
19.03.2017 02:00 7,2 C 83 % 1007,9 hPa 2,1 l/m 6,6 km/h N 4,5 C 6,9 C 18,9 km/h
19.03.2017 03:00 7,2 C 83 % 1008,2 hPa 0,5 l/m 6,8 km/h N 4,4 C 6,7 C 18,5 km/h
19.03.2017 04:00 6,9 C 83 % 1008,8 hPa 1,0 l/m 2,1 km/h N 4,2 C 6,9 C 11,3 km/h
19.03.2017 05:00 6,7 C 83 % 1009,7 hPa 2,1 l/m 0,2 km/h N 4,0 C 6,7 C 3,6 km/h
19.03.2017 06:00 6,6 C 83 % 1010,3 hPa 3,1 l/m 0,2 km/h N 3,9 C 6,6 C 2,8 km/h
19.03.2017 07:00 6,0 C 83 % 1011,3 hPa 3,4 l/m 0,2 km/h N 3,4 C 6,0 C 4,0 km/h
19.03.2017 08:00 6,0 C 83 % 1011,7 hPa 1,6 l/m 0,0 km/h N 3,4 C 6,0 C 1,6 km/h
19.03.2017 09:00 6,5 C 83 % 1012,0 hPa 1,0 l/m 0,6 km/h N 3,8 C 6,5 C 6,4 km/h
19.03.2017 10:00 6,9 C 83 % 1012,0 hPa 0,8 l/m 0,5 km/h N 4,2 C 6,9 C 6,8 km/h
19.03.2017 11:00 7,8 C 83 % 1011,9 hPa 0,0 l/m 0,1 km/h N 5,0 C 7,8 C 4,4 km/h
19.03.2017 12:00 8,4 C 83 % 1011,7 hPa 0,5 l/m 1,5 km/h N 5,7 C 8,4 C 9,3 km/h
19.03.2017 13:00 9,1 C 83 % 1010,9 hPa 0,0 l/m 1,2 km/h N 6,2 C 9,1 C 7,6 km/h
19.03.2017 14:00 9,3 C 82 % 1010,5 hPa 0,0 l/m 0,7 km/h N 6,4 C 9,3 C 4,4 km/h
19.03.2017 15:00 9,2 C 82 % 1010,0 hPa 0,0 l/m 1,0 km/h N 6,3 C 9,2 C 6,0 km/h
19.03.2017 16:00 9,1 C 83 % 1009,0 hPa 0,3 l/m 0,2 km/h N 6,3 C 9,1 C 3,6 km/h
19.03.2017 17:00 9,0 C 83 % 1008,7 hPa 0,0 l/m 0,3 km/h N 6,3 C 9,0 C 5,2 km/h
19.03.2017 18:00 10,1 C 83 % 1008,1 hPa 0,0 l/m 3,6 km/h N 7,2 C 9,8 C 15,3 km/h
19.03.2017 19:00 12,9 C 78 % 1007,9 hPa 0,0 l/m 6,3 km/h N 9,2 C 12,7 C 20,5 km/h
19.03.2017 20:00 13,2 C 77 % 1007,6 hPa 0,0 l/m 5,6 km/h N 9,3 C 12,9 C 19,3 km/h
19.03.2017 21:00 13,7 C 76 % 1007,7 hPa 0,0 l/m 10,2 km/h N 9,6 C 11,7 C 31,0 km/h
19.03.2017 22:00 13,8 C 76 % 1007,3 hPa 0,0 l/m 10,9 km/h N 9,6 C 11,4 C 29,8 km/h
19.03.2017 23:00 14,0 C 75 % 1007,4 hPa 0,0 l/m 11,0 km/h N 9,6 C 11,6 C 31,0 km/h
Min-Datum _ 13.03.17 17.03.17 18.03.17 - 13.03.17 - 13.03.17 13.03.17 13.03.17
_ Min-Zeit 03:15 14:45 13:45 - 00:00 - 02:45 06:00 00:00
Minimum _ -0,9 C 37 % 1002,9 hPa - 0,0 km/h - -4,2 C -0,9 C 0,0 km/h
Max-Datum _ 17.03.17 13.03.17 14.03.17 17.03.17 18.03.17 - 19.03.17 17.03.17 18.03.17
_ Max-Zeit 14:45 07:00 10:15 20:30 18:45 - 23:45 14:30 15:15
Maximum _ 20,6 C 83 % 1029,1 hPa 3,6 l/m 27,7 km/h
N
- 9,8 C 20,5 C 64,4 km/h
N
Durchschnitt _ 9,0 C 69 % 1018,8 hPa #38,5 l/m 5,4 km/h N 3,4 C 7,9 C 15,3 km/h